Time;durP1;ratioP1;P1;durP2;ratioP2;P2;SDS_P1;SDS_P2;PMS_P1;PMS_P2;Temp;Humidity;BMP_temperature;BMP_pressure;BME280_temperature;BME280_humidity;BME280_pressure;Samples;Min_cycle;Max_cycle;Signal;HPM_P1;HPM_P2
2023/01/23 00:01:59;;;;;;;24.95;15.88;;;;;;;;;;5076857;28;20024;-68
2023/01/23 00:04:25;;;;;;;27.27;17.25;;;;;;;;;;5081614;28;20095;-68
2023/01/23 00:06:51;;;;;;;29.40;17.95;;;;;;;;;;5080474;28;20094;-68
2023/01/23 00:09:17;;;;;;;28.90;17.05;;;;;;;;;;5080084;28;20070;-69
2023/01/23 00:11:43;;;;;;;27.23;17.02;;;;;;;;;;5076228;28;20433;-69
2023/01/23 00:14:09;;;;;;;28.88;16.35;;;;;;;;;;5080618;28;20032;-68
2023/01/23 00:16:35;;;;;;;27.38;15.77;;;;;;;;;;5062430;28;20083;-68
2023/01/23 00:19:01;;;;;;;28.25;16.83;;;;;;;;;;5052594;28;20027;-69
2023/01/23 00:21:28;;;;;;;26.85;15.73;;;;;;;;;;5052185;28;20036;-69
2023/01/23 00:23:55;;;;;;;26.15;16.05;;;;;;;;;;5081170;28;20073;-68
2023/01/23 00:26:22;;;;;;;31.55;17.40;;;;;;;;;;5072094;28;20049;-69
2023/01/23 00:28:49;;;;;;;26.55;16.55;;;;;;;;;;5071306;28;20121;-68
2023/01/23 00:31:17;;;;;;;29.42;16.83;;;;;;;;;;5072582;28;20079;-68
2023/01/23 00:33:44;;;;;;;26.55;16.08;;;;;;;;;;5067098;28;20028;-67
2023/01/23 00:36:10;;;;;;;26.85;15.95;;;;;;;;;;5072388;28;20134;-70
2023/01/23 00:38:36;;;;;;;25.48;15.60;;;;;;;;;;5071245;28;20472;-67
2023/01/23 00:41:03;;;;;;;27.02;17.25;;;;;;;;;;5067687;28;20021;-68
2023/01/23 00:43:29;;;;;;;26.05;16.58;;;;;;;;;;5062838;28;20024;-68
2023/01/23 00:45:56;;;;;;;27.35;16.08;;;;;;;;;;5072102;28;20032;-69
2023/01/23 00:48:22;;;;;;;27.15;16.25;;;;;;;;;;5076159;28;20024;-67
2023/01/23 00:50:48;;;;;;;26.70;16.08;;;;;;;;;;5067099;28;20039;-67
2023/01/23 00:53:14;;;;;;;28.38;16.80;;;;;;;;;;5072288;28;20110;-68
2023/01/23 00:55:41;;;;;;;28.50;16.88;;;;;;;;;;5070651;28;20086;-68
2023/01/23 00:58:07;;;;;;;29.15;16.85;;;;;;;;;;5072052;28;20025;-68
2023/01/23 01:00:33;;;;;;;28.60;17.33;;;;;;;;;;5070929;28;20465;-68
2023/01/23 01:02:59;;;;;;;27.90;16.33;;;;;;;;;;5071873;28;20056;-68
2023/01/23 01:05:27;;;;;;;28.42;16.90;;;;;;;;;;5070595;28;20409;-68
2023/01/23 01:07:52;;;;;;;27.52;17.00;;;;;;;;;;5065932;28;20114;-68
2023/01/23 01:10:19;;;;;;;29.83;16.30;;;;;;;;;;5071660;28;20052;-68
2023/01/23 01:12:45;;;;;;;24.88;15.55;;;;;;;;;;5070937;28;20531;-69
2023/01/23 01:15:12;;;;;;;26.83;16.73;;;;;;;;;;5071565;28;20117;-69
2023/01/23 01:17:38;;;;;;;26.98;16.55;;;;;;;;;;5070587;28;20048;-69
2023/01/23 01:20:05;;;;;;;31.33;17.65;;;;;;;;;;5071774;28;20056;-69
2023/01/23 01:22:31;;;;;;;28.05;15.93;;;;;;;;;;5065427;28;20042;-68
2023/01/23 01:24:57;;;;;;;27.63;15.52;;;;;;;;;;5076851;28;20405;-69
2023/01/23 01:27:23;;;;;;;25.33;15.75;;;;;;;;;;5091771;28;20025;-69
2023/01/23 01:29:49;;;;;;;25.02;15.02;;;;;;;;;;5090629;28;20027;-68
2023/01/23 01:32:15;;;;;;;23.23;14.73;;;;;;;;;;5091852;28;20055;-69
2023/01/23 01:34:41;;;;;;;24.23;14.65;;;;;;;;;;5090470;28;20034;-69
2023/01/23 01:37:07;;;;;;;20.55;13.18;;;;;;;;;;5091539;28;20111;-69
2023/01/23 01:39:33;;;;;;;24.40;14.70;;;;;;;;;;5084811;28;20077;-68
2023/01/23 01:41:59;;;;;;;21.92;14.05;;;;;;;;;;5091869;28;20051;-68
2023/01/23 01:44:25;;;;;;;20.75;13.68;;;;;;;;;;5090738;28;20028;-69
2023/01/23 01:46:51;;;;;;;24.13;14.45;;;;;;;;;;5090913;28;20507;-69
2023/01/23 01:49:30;;;;;;;24.23;14.20;;;;;;;;;;5091073;28;20032;-69
2023/01/23 01:51:56;;;;;;;21.25;13.88;;;;;;;;;;5091608;28;20130;-68
2023/01/23 01:54:24;;;;;;;20.67;13.45;;;;;;;;;;5091286;28;20107;-69
2023/01/23 01:56:59;;;;;;;21.58;13.77;;;;;;;;;;5086673;28;20024;-69
2023/01/23 01:59:27;;;;;;;21.25;14.02;;;;;;;;;;5090129;28;20023;-69
2023/01/23 02:01:56;;;;;;;23.38;14.43;;;;;;;;;;5091543;28;20035;-69
2023/01/23 02:04:23;;;;;;;21.85;13.82;;;;;;;;;;5091100;28;20024;-69
2023/01/23 02:06:50;;;;;;;20.63;13.50;;;;;;;;;;5090651;28;20119;-68
2023/01/23 02:09:21;;;;;;;22.10;12.98;;;;;;;;;;5091054;28;20020;-69
2023/01/23 02:11:47;;;;;;;22.10;13.65;;;;;;;;;;5090383;28;20587;-69
2023/01/23 02:14:13;;;;;;;23.42;14.57;;;;;;;;;;5089410;28;20110;-69
2023/01/23 02:16:41;;;;;;;24.25;14.55;;;;;;;;;;5102770;28;20026;-69
2023/01/23 02:19:26;;;;;;;23.25;14.13;;;;;;;;;;5095088;28;20039;-69
2023/01/23 02:21:57;;;;;;;22.42;13.63;;;;;;;;;;5095076;28;20032;-69
2023/01/23 02:24:28;;;;;;;21.88;13.63;;;;;;;;;;5094307;28;20024;-69
2023/01/23 02:26:56;;;;;;;21.52;14.07;;;;;;;;;;5095084;28;20065;-69
2023/01/23 02:29:22;;;;;;;23.45;14.80;;;;;;;;;;5094793;28;20082;-69
2023/01/23 02:31:51;;;;;;;24.30;13.70;;;;;;;;;;5092252;28;20036;-69
2023/01/23 02:34:17;;;;;;;23.02;13.88;;;;;;;;;;5094909;28;20102;-70
2023/01/23 02:36:46;;;;;;;25.10;15.07;;;;;;;;;;5094416;28;20059;-70
2023/01/23 02:39:14;;;;;;;23.67;15.32;;;;;;;;;;5094534;28;20050;-69
2023/01/23 02:41:41;;;;;;;23.00;14.10;;;;;;;;;;5094355;28;20020;-69
2023/01/23 02:44:16;;;;;;;22.38;13.43;;;;;;;;;;5094665;28;20028;-69
2023/01/23 02:46:42;;;;;;;24.35;14.13;;;;;;;;;;5094155;28;20055;-69
2023/01/23 02:49:08;;;;;;;23.55;14.10;;;;;;;;;;5084511;28;20060;-67
2023/01/23 02:51:34;;;;;;;23.98;14.85;;;;;;;;;;5093826;28;20107;-68
2023/01/23 02:54:00;;;;;;;23.85;14.73;;;;;;;;;;5094416;28;20405;-68
2023/01/23 02:56:27;;;;;;;23.63;15.13;;;;;;;;;;5094097;28;20047;-68
2023/01/23 03:01:38;;;;;;;22.90;14.48;;;;;;;;;;5093680;28;20089;-69
2023/01/23 03:04:05;;;;;;;24.48;14.70;;;;;;;;;;5092575;28;20092;-68
2023/01/23 03:06:35;;;;;;;23.73;13.85;;;;;;;;;;5090630;28;20028;-68
2023/01/23 03:09:02;;;;;;;26.08;15.27;;;;;;;;;;5094268;28;20517;-68
2023/01/23 03:11:28;;;;;;;24.33;14.73;;;;;;;;;;5093999;28;20484;-67
2023/01/23 03:13:54;;;;;;;24.75;14.88;;;;;;;;;;5093779;28;20073;-69
2023/01/23 03:16:19;;;;;;;25.02;15.85;;;;;;;;;;5094138;28;20032;-68
2023/01/23 03:18:46;;;;;;;26.77;16.70;;;;;;;;;;5092945;28;20622;-68
2023/01/23 03:21:12;;;;;;;25.35;15.68;;;;;;;;;;5090011;28;20032;-69
2023/01/23 03:23:43;;;;;;;26.13;15.70;;;;;;;;;;5092762;28;20039;-68
2023/01/23 03:26:10;;;;;;;23.90;14.75;;;;;;;;;;5092917;28;20393;-68
2023/01/23 03:31:21;;;;;;;24.92;15.82;;;;;;;;;;5090057;28;20055;-68
2023/01/23 03:33:47;;;;;;;25.02;15.70;;;;;;;;;;5090523;28;20068;-68
2023/01/23 03:36:14;;;;;;;25.08;15.57;;;;;;;;;;5091813;28;20074;-68
2023/01/23 03:41:23;;;;;;;25.98;16.08;;;;;;;;;;5090845;28;20476;-68
2023/01/23 03:41:26;;;;;;;22.90;14.60;;;;;;;;;;5089356;28;20031;-67
2023/01/23 03:43:52;;;;;;;21.77;14.43;;;;;;;;;;5090817;28;20419;-68
2023/01/23 03:46:18;;;;;;;26.63;16.65;;;;;;;;;;5090639;28;20073;-68
2023/01/23 03:48:44;;;;;;;27.65;16.83;;;;;;;;;;5089091;28;20822;-68
2023/01/23 03:51:10;;;;;;;26.88;15.77;;;;;;;;;;5091595;28;20020;-68
2023/01/23 03:53:36;;;;;;;26.38;16.13;;;;;;;;;;5090332;28;20385;-67
2023/01/23 03:56:02;;;;;;;25.90;15.98;;;;;;;;;;5087729;28;20034;-69
2023/01/23 03:58:29;;;;;;;29.13;17.27;;;;;;;;;;5092141;28;20024;-68
2023/01/23 04:00:55;;;;;;;28.27;16.08;;;;;;;;;;5089117;28;20076;-69
2023/01/23 04:03:21;;;;;;;27.20;16.70;;;;;;;;;;5090959;28;20023;-69
2023/01/23 04:05:47;;;;;;;25.17;16.42;;;;;;;;;;5090393;28;20016;-68
2023/01/23 04:08:13;;;;;;;27.02;16.13;;;;;;;;;;5091340;28;20027;-69
2023/01/23 04:10:39;;;;;;;25.88;16.35;;;;;;;;;;5090462;28;20066;-69
2023/01/23 04:13:05;;;;;;;26.42;16.48;;;;;;;;;;5087122;28;20024;-67
2023/01/23 04:15:32;;;;;;;28.83;17.40;;;;;;;;;;5090355;28;20158;-68
2023/01/23 04:17:58;;;;;;;27.10;16.45;;;;;;;;;;5091169;28;20119;-68
2023/01/23 04:20:24;;;;;;;27.70;16.33;;;;;;;;;;5090848;28;20021;-69
2023/01/23 04:22:50;;;;;;;27.13;16.80;;;;;;;;;;5091839;28;20039;-69
2023/01/23 04:25:16;;;;;;;29.48;17.83;;;;;;;;;;5091777;28;20131;-68
2023/01/23 04:27:42;;;;;;;27.20;16.92;;;;;;;;;;5091952;28;20095;-68
2023/01/23 04:30:08;;;;;;;27.52;17.75;;;;;;;;;;5087887;28;20024;-68
2023/01/23 04:32:34;;;;;;;29.10;16.20;;;;;;;;;;5091761;28;20028;-68
2023/01/23 04:35:00;;;;;;;29.30;17.92;;;;;;;;;;5092173;28;20039;-69
2023/01/23 04:37:26;;;;;;;29.30;17.10;;;;;;;;;;5092341;28;20016;-68
2023/01/23 04:39:52;;;;;;;29.45;17.30;;;;;;;;;;5091855;28;20032;-68
2023/01/23 04:42:18;;;;;;;27.38;17.38;;;;;;;;;;5092712;28;20063;-68
2023/01/23 04:44:44;;;;;;;26.60;16.80;;;;;;;;;;5091425;28;20028;-68
2023/01/23 04:47:10;;;;;;;29.10;16.90;;;;;;;;;;5088532;28;20532;-69
2023/01/23 04:49:37;;;;;;;28.40;17.55;;;;;;;;;;5090177;28;20044;-67
2023/01/23 04:52:03;;;;;;;30.58;17.63;;;;;;;;;;5092507;28;20016;-68
2023/01/23 04:54:29;;;;;;;29.27;17.60;;;;;;;;;;5091115;28;20054;-68
2023/01/23 04:56:54;;;;;;;28.67;16.83;;;;;;;;;;5092509;28;20085;-69
2023/01/23 04:59:21;;;;;;;26.77;15.88;;;;;;;;;;5091902;28;20476;-68
2023/01/23 05:01:47;;;;;;;28.30;16.52;;;;;;;;;;5091643;28;20023;-68
2023/01/23 05:04:13;;;;;;;39.70;19.15;;;;;;;;;;5091512;28;20103;-68
2023/01/23 05:06:40;;;;;;;28.58;17.15;;;;;;;;;;5093603;28;20404;-68
2023/01/23 05:09:06;;;;;;;27.48;17.08;;;;;;;;;;5091883;28;20553;-69
2023/01/23 05:11:32;;;;;;;26.40;16.52;;;;;;;;;;5091464;28;20491;-68
2023/01/23 05:13:58;;;;;;;31.25;18.50;;;;;;;;;;5091517;28;20063;-68
2023/01/23 05:16:24;;;;;;;34.95;18.48;;;;;;;;;;5091609;28;20425;-69
2023/01/23 05:18:50;;;;;;;29.52;17.88;;;;;;;;;;5090895;28;20040;-69
2023/01/23 05:21:16;;;;;;;34.72;18.95;;;;;;;;;;5091994;28;20111;-68
2023/01/23 05:23:42;;;;;;;30.98;18.17;;;;;;;;;;5086047;28;20069;-69
2023/01/23 05:26:08;;;;;;;30.45;17.30;;;;;;;;;;5091175;28;20059;-68
2023/01/23 05:28:33;;;;;;;29.50;17.38;;;;;;;;;;5090810;28;20480;-68
2023/01/23 05:30:59;;;;;;;29.85;18.33;;;;;;;;;;5091875;28;20028;-68
2023/01/23 05:33:25;;;;;;;30.33;17.30;;;;;;;;;;5091480;28;20107;-68
2023/01/23 05:35:51;;;;;;;29.58;17.98;;;;;;;;;;5090873;28;20099;-68
2023/01/23 05:38:17;;;;;;;30.10;17.33;;;;;;;;;;5091775;28;20074;-68
2023/01/23 05:40:43;;;;;;;30.77;17.92;;;;;;;;;;5085443;28;20032;-68
2023/01/23 05:43:13;;;;;;;30.23;17.98;;;;;;;;;;5091954;28;20024;-68
2023/01/23 05:45:39;;;;;;;25.70;16.33;;;;;;;;;;5090404;28;20051;-68
2023/01/23 05:48:05;;;;;;;30.40;17.02;;;;;;;;;;5091154;28;20028;-68
2023/01/23 05:50:31;;;;;;;32.10;17.23;;;;;;;;;;5089472;28;20373;-68
2023/01/23 05:52:57;;;;;;;29.08;16.98;;;;;;;;;;5073476;28;20080;-68
2023/01/23 05:55:23;;;;;;;28.88;16.90;;;;;;;;;;5091013;28;20024;-69
2023/01/23 05:57:50;;;;;;;29.42;17.00;;;;;;;;;;5085733;28;20081;-68
2023/01/23 06:00:16;;;;;;;28.85;17.15;;;;;;;;;;5090862;28;20358;-69
2023/01/23 06:02:42;;;;;;;28.52;17.55;;;;;;;;;;5090025;28;20051;-69
2023/01/23 06:05:08;;;;;;;28.33;17.25;;;;;;;;;;5090260;28;20031;-69
2023/01/23 06:07:36;;;;;;;30.20;17.05;;;;;;;;;;5090016;28;20159;-69
2023/01/23 06:10:02;;;;;;;28.48;16.65;;;;;;;;;;5072556;28;20360;-70
2023/01/23 06:12:28;;;;;;;30.50;17.38;;;;;;;;;;5090060;28;20020;-69
2023/01/23 06:14:54;;;;;;;30.73;17.13;;;;;;;;;;5087220;28;20043;-70
2023/01/23 06:17:20;;;;;;;30.42;17.70;;;;;;;;;;5090899;28;20093;-67
2023/01/23 06:19:47;;;;;;;31.88;17.45;;;;;;;;;;5088945;28;20471;-69
2023/01/23 06:22:13;;;;;;;31.75;17.52;;;;;;;;;;5090297;28;20050;-72
2023/01/23 06:24:39;;;;;;;28.02;16.05;;;;;;;;;;5089864;28;20369;-69
2023/01/23 06:27:08;;;;;;;31.30;16.60;;;;;;;;;;5091201;28;20081;-72
2023/01/23 06:29:34;;;;;;;29.73;16.55;;;;;;;;;;5087376;28;20031;-69
2023/01/23 06:32:00;;;;;;;30.23;17.70;;;;;;;;;;5083193;28;20078;-71
2023/01/23 06:34:26;;;;;;;30.40;17.38;;;;;;;;;;5090119;28;20032;-68
2023/01/23 06:36:52;;;;;;;29.25;16.52;;;;;;;;;;5090831;28;20026;-76
2023/01/23 06:39:18;;;;;;;31.73;16.85;;;;;;;;;;5090612;28;20024;-69
2023/01/23 06:41:44;;;;;;;30.23;17.02;;;;;;;;;;5090674;28;20086;-72
2023/01/23 06:44:10;;;;;;;29.23;16.77;;;;;;;;;;5090798;28;20020;-73
2023/01/23 06:46:36;;;;;;;30.80;16.85;;;;;;;;;;5090071;28;20157;-69
2023/01/23 06:49:03;;;;;;;28.80;16.80;;;;;;;;;;5083215;28;20055;-66
2023/01/23 06:51:29;;;;;;;30.88;16.85;;;;;;;;;;5089694;28;20028;-68
2023/01/23 06:53:55;;;;;;;27.85;15.63;;;;;;;;;;5090181;28;20103;-67
2023/01/23 06:56:21;;;;;;;31.90;17.73;;;;;;;;;;5090814;28;20436;-70
2023/01/23 06:58:47;;;;;;;27.30;16.17;;;;;;;;;;5089441;28;20028;-67
2023/01/23 07:01:15;;;;;;;29.27;16.10;;;;;;;;;;5090871;28;20024;-68
2023/01/23 07:03:43;;;;;;;31.85;16.80;;;;;;;;;;5092584;28;20024;-67
2023/01/23 07:06:09;;;;;;;31.25;16.58;;;;;;;;;;5090942;28;20019;-66
2023/01/23 07:08:35;;;;;;;29.75;17.35;;;;;;;;;;5089840;28;20043;-66
2023/01/23 07:11:02;;;;;;;30.50;17.90;;;;;;;;;;5094306;28;20069;-66
2023/01/23 07:13:28;;;;;;;29.08;16.42;;;;;;;;;;5093458;28;20384;-66
2023/01/23 07:15:54;;;;;;;28.77;16.42;;;;;;;;;;5093872;28;20032;-65
2023/01/23 07:18:21;;;;;;;29.05;15.95;;;;;;;;;;5094195;28;20024;-65
2023/01/23 07:20:48;;;;;;;28.50;16.92;;;;;;;;;;5080091;28;20025;-66
2023/01/23 07:23:14;;;;;;;33.28;17.38;;;;;;;;;;5089691;28;20373;-68
2023/01/23 07:25:40;;;;;;;33.13;17.63;;;;;;;;;;5087765;28;20040;-66
2023/01/23 07:28:06;;;;;;;29.45;16.30;;;;;;;;;;5092766;28;20051;-65
2023/01/23 07:30:33;;;;;;;28.50;16.05;;;;;;;;;;5092365;28;20103;-68
2023/01/23 07:32:59;;;;;;;27.75;16.50;;;;;;;;;;5088424;28;20024;-69
2023/01/23 07:35:25;;;;;;;29.08;16.73;;;;;;;;;;5088236;28;20685;-66
2023/01/23 07:37:52;;;;;;;28.15;15.45;;;;;;;;;;5091975;28;20107;-67
2023/01/23 07:40:18;;;;;;;34.05;17.40;;;;;;;;;;5092463;28;20038;-66
2023/01/23 07:42:45;;;;;;;32.58;15.93;;;;;;;;;;5092266;28;20392;-66
2023/01/23 07:45:11;;;;;;;35.20;17.95;;;;;;;;;;5092731;28;20055;-66
2023/01/23 07:47:40;;;;;;;30.23;17.27;;;;;;;;;;5084880;28;20036;-66
2023/01/23 07:50:07;;;;;;;36.05;16.55;;;;;;;;;;5080520;28;20032;-67
2023/01/23 07:52:33;;;;;;;34.25;18.17;;;;;;;;;;5090648;28;20036;-67
2023/01/23 07:54:59;;;;;;;33.00;17.52;;;;;;;;;;5100460;28;20490;-66
2023/01/23 07:57:25;;;;;;;31.65;17.65;;;;;;;;;;5096420;28;20020;-67
2023/01/23 07:59:51;;;;;;;31.42;17.23;;;;;;;;;;5092970;28;20020;-66
2023/01/23 08:02:17;;;;;;;36.05;17.05;;;;;;;;;;5081007;28;20035;-67
2023/01/23 08:04:43;;;;;;;32.72;17.27;;;;;;;;;;5095936;28;20020;-66
2023/01/23 08:07:09;;;;;;;32.50;17.33;;;;;;;;;;5089581;28;20024;-66
2023/01/23 08:09:35;;;;;;;30.65;16.67;;;;;;;;;;5090535;28;20067;-67
2023/01/23 08:12:01;;;;;;;28.50;16.63;;;;;;;;;;5097089;28;20081;-66
2023/01/23 08:14:27;;;;;;;35.15;17.00;;;;;;;;;;5094502;28;20028;-67
2023/01/23 08:16:54;;;;;;;31.05;18.05;;;;;;;;;;5096519;28;20092;-66
2023/01/23 08:19:20;;;;;;;31.75;17.80;;;;;;;;;;5083556;28;20081;-66
2023/01/23 08:21:46;;;;;;;34.30;19.48;;;;;;;;;;5095021;28;20465;-67
2023/01/23 08:24:12;;;;;;;33.28;18.67;;;;;;;;;;5090143;28;20487;-66
2023/01/23 08:26:38;;;;;;;33.60;18.48;;;;;;;;;;5090945;28;20484;-66
2023/01/23 08:29:04;;;;;;;31.23;16.45;;;;;;;;;;5091867;28;20032;-67
2023/01/23 08:31:31;;;;;;;31.73;15.88;;;;;;;;;;5092506;28;20088;-68
2023/01/23 08:33:57;;;;;;;32.42;16.98;;;;;;;;;;5095453;28;20024;-67
2023/01/23 08:36:23;;;;;;;31.40;17.20;;;;;;;;;;5093870;28;20703;-67
2023/01/23 08:38:49;;;;;;;32.75;16.90;;;;;;;;;;5090672;28;20017;-67
2023/01/23 08:41:15;;;;;;;32.00;17.13;;;;;;;;;;5091727;28;20024;-68
2023/01/23 08:43:41;;;;;;;29.40;16.02;;;;;;;;;;5090633;28;20031;-67
2023/01/23 08:46:07;;;;;;;32.00;16.70;;;;;;;;;;5091712;28;20533;-67
2023/01/23 08:48:34;;;;;;;32.08;16.95;;;;;;;;;;5088307;28;20103;-67
2023/01/23 08:51:02;;;;;;;32.22;17.33;;;;;;;;;;5092074;28;20024;-67
2023/01/23 08:53:28;;;;;;;33.67;17.58;;;;;;;;;;5090400;28;20031;-67
2023/01/23 08:55:58;;;;;;;30.38;16.58;;;;;;;;;;5091389;28;20093;-67
2023/01/23 08:58:24;;;;;;;27.13;14.75;;;;;;;;;;5091132;28;20469;-67
2023/01/23 09:00:50;;;;;;;29.58;15.68;;;;;;;;;;5090704;28;20095;-66
2023/01/23 09:03:16;;;;;;;28.92;14.48;;;;;;;;;;5091369;28;20042;-67
2023/01/23 09:05:42;;;;;;;24.48;13.85;;;;;;;;;;5090374;28;20028;-67
2023/01/23 09:08:08;;;;;;;26.95;14.48;;;;;;;;;;5091142;28;20028;-67
2023/01/23 09:10:35;;;;;;;29.48;15.40;;;;;;;;;;5090063;28;20087;-67
2023/01/23 09:13:01;;;;;;;31.08;15.38;;;;;;;;;;5091506;28;20012;-66
2023/01/23 09:15:27;;;;;;;27.35;15.07;;;;;;;;;;5089688;28;20047;-67
2023/01/23 09:17:53;;;;;;;29.27;15.57;;;;;;;;;;5095469;28;20028;-67
2023/01/23 09:20:19;;;;;;;23.80;13.48;;;;;;;;;;5090518;28;20380;-67
2023/01/23 09:22:45;;;;;;;24.98;13.13;;;;;;;;;;5093430;28;20032;-67
2023/01/23 09:25:11;;;;;;;25.83;14.50;;;;;;;;;;5075774;28;20044;-68
2023/01/23 09:27:37;;;;;;;21.27;12.65;;;;;;;;;;5063879;28;20016;-68
2023/01/23 09:30:04;;;;;;;27.08;13.70;;;;;;;;;;5070297;28;20032;-68
2023/01/23 09:32:30;;;;;;;25.67;14.02;;;;;;;;;;5069686;28;20111;-68
2023/01/23 09:34:56;;;;;;;21.27;11.75;;;;;;;;;;5064201;28;20099;-67
2023/01/23 09:37:22;;;;;;;20.27;11.30;;;;;;;;;;5071811;28;20431;-67
2023/01/23 09:39:48;;;;;;;23.20;12.77;;;;;;;;;;5077569;28;20052;-68
2023/01/23 09:42:18;;;;;;;20.95;11.52;;;;;;;;;;5070755;28;20417;-68
2023/01/23 09:44:48;;;;;;;22.98;12.18;;;;;;;;;;5070700;28;20519;-68
2023/01/23 09:47:17;;;;;;;19.40;11.52;;;;;;;;;;5066774;28;20021;-68
2023/01/23 09:49:45;;;;;;;20.95;12.27;;;;;;;;;;5068489;28;20029;-67
2023/01/23 09:52:18;;;;;;;20.95;11.55;;;;;;;;;;5070307;28;20082;-68
2023/01/23 09:54:45;;;;;;;18.98;11.07;;;;;;;;;;5069035;28;20021;-68
2023/01/23 09:57:13;;;;;;;19.75;11.40;;;;;;;;;;5077862;28;20423;-68
2023/01/23 09:59:40;;;;;;;20.67;11.88;;;;;;;;;;5065556;28;20056;-68
2023/01/23 10:02:19;;;;;;;19.80;11.70;;;;;;;;;;5070685;28;20112;-68
2023/01/23 10:04:48;;;;;;;20.17;11.47;;;;;;;;;;5067440;28;20714;-68
2023/01/23 10:07:14;;;;;;;20.15;10.75;;;;;;;;;;5062461;28;20028;-68
2023/01/23 10:09:48;;;;;;;19.55;10.75;;;;;;;;;;5069354;28;20093;-68
2023/01/23 10:12:28;;;;;;;20.83;11.70;;;;;;;;;;5070732;28;20040;-68
2023/01/23 10:15:20;;;;;;;18.23;10.90;;;;;;;;;;5074032;28;20537;-66
2023/01/23 10:18:06;;;;;;;17.30;10.00;;;;;;;;;;5066137;28;20033;-67
2023/01/23 10:20:50;;;;;;;22.02;11.07;;;;;;;;;;5063162;28;20035;-67
2023/01/23 10:23:22;;;;;;;19.40;11.30;;;;;;;;;;5070354;28;20038;-67
2023/01/23 10:25:49;;;;;;;30.55;16.60;;;;;;;;;;5081176;28;20052;-67
2023/01/23 10:28:37;;;;;;;21.70;12.25;;;;;;;;;;5090603;28;20044;-67
2023/01/23 10:31:22;;;;;;;18.92;11.57;;;;;;;;;;5086612;28;20078;-67
2023/01/23 10:33:50;;;;;;;18.15;10.00;;;;;;;;;;5073661;28;20779;-68
2023/01/23 10:36:22;;;;;;;16.80;10.55;;;;;;;;;;5089877;28;20028;-67
2023/01/23 10:38:53;;;;;;;17.85;10.90;;;;;;;;;;5090685;28;20488;-67
2023/01/23 10:41:20;;;;;;;19.35;11.07;;;;;;;;;;5099067;28;20031;-67
2023/01/23 10:43:48;;;;;;;21.80;10.77;;;;;;;;;;5102214;28;20020;-67
2023/01/23 10:46:16;;;;;;;18.42;10.77;;;;;;;;;;5093842;28;20024;-68
2023/01/23 10:48:43;;;;;;;18.08;10.70;;;;;;;;;;5096810;28;20047;-67
2023/01/23 10:51:28;;;;;;;19.85;11.50;;;;;;;;;;5093728;28;20419;-66
2023/01/23 10:54:03;;;;;;;22.85;11.25;;;;;;;;;;5108834;28;20119;-67
2023/01/23 10:56:30;;;;;;;20.15;11.60;;;;;;;;;;5081979;28;20522;-68
2023/01/23 10:58:56;;;;;;;20.38;12.23;;;;;;;;;;5098097;28;20028;-68
2023/01/23 11:01:26;;;;;;;21.40;12.07;;;;;;;;;;5094122;28;20055;-68
2023/01/23 11:03:52;;;;;;;21.80;12.13;;;;;;;;;;5093182;28;20035;-68
2023/01/23 11:06:20;;;;;;;19.83;11.30;;;;;;;;;;5099695;28;20036;-68
2023/01/23 11:08:52;;;;;;;22.33;13.50;;;;;;;;;;5092834;28;20027;-67
2023/01/23 11:11:21;;;;;;;23.52;11.77;;;;;;;;;;5096694;28;20040;-68
2023/01/23 11:13:48;;;;;;;18.60;11.70;;;;;;;;;;5089108;28;20036;-67
2023/01/23 11:16:15;;;;;;;20.13;12.15;;;;;;;;;;5092116;28;20095;-67
2023/01/23 11:18:41;;;;;;;22.38;11.90;;;;;;;;;;5092531;28;20032;-67
2023/01/23 11:21:19;;;;;;;19.45;12.15;;;;;;;;;;5093874;28;20016;-67
2023/01/23 11:23:45;;;;;;;23.60;13.07;;;;;;;;;;5092986;28;20103;-67
2023/01/23 11:26:30;;;;;;;19.45;11.35;;;;;;;;;;5092755;28;20115;-67
2023/01/23 11:28:56;;;;;;;19.55;11.25;;;;;;;;;;5093335;28;20103;-67
2023/01/23 11:31:25;;;;;;;21.95;12.20;;;;;;;;;;5082141;28;20091;-67
2023/01/23 11:34:06;;;;;;;24.70;13.45;;;;;;;;;;5087759;28;20056;-67
2023/01/23 11:36:38;;;;;;;23.48;12.75;;;;;;;;;;5084450;28;20095;-67
2023/01/23 11:39:23;;;;;;;22.17;12.65;;;;;;;;;;5074320;28;20046;-67
2023/01/23 11:41:49;;;;;;;25.25;12.35;;;;;;;;;;5091956;28;20031;-67
2023/01/23 11:44:19;;;;;;;21.85;12.90;;;;;;;;;;5092793;28;20059;-67
2023/01/23 11:46:54;;;;;;;22.20;12.55;;;;;;;;;;5091536;28;20024;-67
2023/01/23 11:49:20;;;;;;;23.48;13.32;;;;;;;;;;5088015;28;20503;-67
2023/01/23 11:51:49;;;;;;;27.05;13.40;;;;;;;;;;5084297;28;20067;-67
2023/01/23 11:54:33;;;;;;;25.60;13.80;;;;;;;;;;5087556;28;20044;-68
2023/01/23 11:57:02;;;;;;;26.02;13.98;;;;;;;;;;5090426;28;20023;-67
2023/01/23 11:59:37;;;;;;;23.75;13.02;;;;;;;;;;5091868;28;20031;-67
2023/01/23 12:02:03;;;;;;;25.33;14.20;;;;;;;;;;5093758;28;20095;-67
2023/01/23 12:04:29;;;;;;;26.60;14.07;;;;;;;;;;5087142;28;20409;-67
2023/01/23 12:07:13;;;;;;;26.98;14.75;;;;;;;;;;5093037;28;20027;-67
2023/01/23 12:09:48;;;;;;;28.23;14.80;;;;;;;;;;5091737;28;20099;-67
2023/01/23 12:12:28;;;;;;;27.75;15.35;;;;;;;;;;5092873;28;20024;-67
2023/01/23 12:15:08;;;;;;;24.63;14.30;;;;;;;;;;5105292;28;20099;-67
2023/01/23 12:17:34;;;;;;;26.33;14.80;;;;;;;;;;5091405;28;20028;-67
2023/01/23 12:20:03;;;;;;;25.63;13.90;;;;;;;;;;5092293;28;20030;-67
2023/01/23 12:22:34;;;;;;;27.20;13.20;;;;;;;;;;5084033;28;20020;-67
2023/01/23 12:25:03;;;;;;;29.08;14.52;;;;;;;;;;5091753;28;20067;-66
2023/01/23 12:27:43;;;;;;;28.58;14.90;;;;;;;;;;5091319;28;20028;-67
2023/01/23 12:30:23;;;;;;;25.15;14.18;;;;;;;;;;5089631;28;20025;-67
2023/01/23 12:33:00;;;;;;;25.35;14.05;;;;;;;;;;5079597;28;20028;-66
2023/01/23 12:35:35;;;;;;;28.02;14.07;;;;;;;;;;5081711;28;20039;-66
2023/01/23 12:38:14;;;;;;;24.92;13.82;;;;;;;;;;5087755;28;20473;-66
2023/01/23 12:40:40;;;;;;;24.55;13.63;;;;;;;;;;5086365;28;20480;-67
2023/01/23 12:43:12;;;;;;;24.65;12.90;;;;;;;;;;5090059;28;20025;-66
2023/01/23 12:45:41;;;;;;;25.08;12.95;;;;;;;;;;5085730;28;20465;-67
2023/01/23 12:48:13;;;;;;;23.77;12.27;;;;;;;;;;5091723;28;20486;-67
2023/01/23 12:50:39;;;;;;;24.02;12.77;;;;;;;;;;5081480;28;20257;-67
2023/01/23 12:53:15;;;;;;;24.15;12.55;;;;;;;;;;5086455;28;20028;-67
2023/01/23 12:55:47;;;;;;;23.63;13.40;;;;;;;;;;5077077;28;20039;-67
2023/01/23 12:58:15;;;;;;;23.60;13.05;;;;;;;;;;5081808;28;20033;-67
2023/01/23 13:00:41;;;;;;;23.65;12.25;;;;;;;;;;5084223;28;20016;-67
2023/01/23 13:03:13;;;;;;;24.63;12.90;;;;;;;;;;5083743;28;20563;-67
2023/01/23 13:06:02;;;;;;;23.63;13.02;;;;;;;;;;5083205;28;20492;-67
2023/01/23 13:08:31;;;;;;;26.07;13.90;;;;;;;;;;5075938;28;20569;-68
2023/01/23 13:13:51;;;;;;;21.33;11.98;;;;;;;;;;5089818;28;20079;-67
2023/01/23 13:16:17;;;;;;;26.75;12.85;;;;;;;;;;5079020;28;20041;-67
2023/01/23 13:22:11;;;;;;;20.02;11.50;;;2.90;99.90;;;;;;5092215;28;21491;-67
2023/01/23 13:27:34;;;;;;;20.73;11.35;;;2.70;99.90;;;;;;5082869;28;20404;-66
2023/01/23 13:30:04;;;;;;;23.35;11.02;;;2.60;99.90;;;;;;5077397;28;20127;-67
2023/01/23 13:32:30;;;;;;;21.88;12.20;;;2.60;99.90;;;;;;5079320;28;20028;-67
2023/01/23 13:34:56;;;;;;;22.83;12.20;;;2.70;99.90;;;;;;5077072;28;20107;-67
2023/01/23 13:37:28;;;;;;;22.85;12.02;;;2.60;99.90;;;;;;5082049;28;20111;-67
2023/01/23 13:40:14;;;;;;;21.40;12.40;;;2.70;99.90;;;;;;5082365;28;20024;-67
2023/01/23 13:42:40;;;;;;;20.92;12.23;;;2.70;99.90;;;;;;5090264;28;20032;-67
2023/01/23 13:45:15;;;;;;;22.17;11.57;;;2.80;99.90;;;;;;5085560;28;20028;-67
2023/01/23 13:51:21;;;;;;;22.17;12.32;;;2.70;99.90;;;;;;5088976;28;20039;-67
2023/01/23 13:56:38;;;;;;;23.33;12.48;;;2.80;99.90;;;;;;5090272;28;20092;-66
2023/01/23 13:59:34;;;;;;;24.52;12.95;;;2.90;99.90;;;;;;5099661;28;20440;-67
2023/01/23 14:05:18;;;;;;;22.58;12.07;;;2.80;99.90;;;;;;5082953;28;20084;-67
2023/01/23 14:07:46;;;;;;;22.95;11.35;;;2.80;99.90;;;;;;5090813;28;20036;-66
2023/01/23 14:10:14;;;;;;;20.88;11.93;;;2.80;99.90;;;;;;5090212;28;20408;-66
2023/01/23 14:12:40;;;;;;;27.25;11.98;;;2.90;99.90;;;;;;5096829;28;20035;-67
2023/01/23 14:18:16;;;;;;;21.27;11.07;;;3.00;99.90;;;;;;5094670;28;20031;-68
2023/01/23 14:20:44;;;;;;;25.02;11.32;;;2.90;99.90;;;;;;5093125;28;20503;-66
2023/01/23 14:23:19;;;;;;;19.95;11.40;;;2.80;99.90;;;;;;5101412;28;20118;-66
2023/01/23 14:25:46;;;;;;;23.02;12.60;;;2.80;99.90;;;;;;5093535;28;20044;-66
2023/01/23 14:28:16;;;;;;;20.35;11.13;;;2.80;99.90;;;;;;5088248;28;20107;-66
2023/01/23 14:30:51;;;;;;;;;;;2.80;99.90;;;;;;5093412;28;20027;-66
2023/01/23 14:33:17;;;;;;;22.02;11.27;;;2.70;99.90;;;;;;5096856;28;20014;-66
2023/01/23 14:35:43;;;;;;;22.42;11.82;;;2.70;99.90;;;;;;5095388;28;20561;-66
2023/01/23 14:38:19;;;;;;;23.10;12.57;;;2.60;99.90;;;;;;5096468;28;20409;-67
2023/01/23 14:40:45;;;;;;;24.35;11.88;;;2.60;99.90;;;;;;5099981;28;20027;-67
2023/01/23 14:43:21;;;;;;;20.20;11.30;;;2.50;99.90;;;;;;5095435;28;20040;-67